Russellville, Ohio
Current Conditions -  °F | °C
As of 12:35 AM on Friday 31 Oct 2014 (Local Time) from KFGX Reporting Station
Clear Clear  
Wind Chill: 39°   Ceiling: Unl
Heat Index: 39°   Visibility: 10mi
Dew Point: 34°   Wind: 0mph
Humidity: 84%   Direction: NA
Pressure: 30.05"   Gusts: NA
Location:  38.87°N, 83.79°W
Report Text: KFGX 310435Z AUTO 00000KT 10SM CLR 04/01 A3005 RMK AO2 T00370013
Loading
Personal Weather Stations






























Interactive Weather Map
Tropical Storm Tracking
New forecast layout! Learn more

10-Day Weather Forecast

Advertisements
Track Severe Weather on mobile